createdAt,value
2018-06-13T00:01:42.301Z,17.50
2018-06-13T00:04:45.211Z,17.50
2018-06-13T00:07:48.137Z,17.40
2018-06-13T00:10:51.043Z,17.40
2018-06-13T00:13:53.951Z,17.40
2018-06-13T00:16:56.889Z,17.30
2018-06-13T00:19:59.831Z,17.20
2018-06-13T00:23:02.768Z,17.10
2018-06-13T00:26:05.750Z,17.10
2018-06-13T00:29:19.566Z,17.00
2018-06-13T00:32:25.557Z,16.90
2018-06-13T00:35:28.467Z,16.90
2018-06-13T00:38:32.114Z,17.00
2018-06-13T00:41:34.990Z,16.90
2018-06-13T00:44:37.929Z,16.90
2018-06-13T00:47:40.840Z,16.80
2018-06-13T00:50:43.837Z,16.90
2018-06-13T00:53:46.734Z,16.90
2018-06-13T00:56:49.641Z,16.80
2018-06-13T00:59:52.532Z,16.80
2018-06-13T01:02:55.467Z,16.80
2018-06-13T01:05:58.370Z,16.80
2018-06-13T01:09:01.315Z,16.90
2018-06-13T01:12:04.262Z,16.90
2018-06-13T01:15:07.197Z,16.90
2018-06-13T01:18:10.105Z,17.00
2018-06-13T01:21:13.025Z,17.00
2018-06-13T01:24:15.925Z,17.00
2018-06-13T01:27:18.876Z,17.00
2018-06-13T01:30:22.798Z,17.00
2018-06-13T01:33:25.778Z,17.00
2018-06-13T01:36:34.180Z,17.00
2018-06-13T01:39:52.395Z,17.10
2018-06-13T01:42:56.226Z,17.00
2018-06-13T01:46:04.934Z,17.00
2018-06-13T01:49:07.844Z,17.10
2018-06-13T01:55:13.744Z,17.00
2018-06-13T01:58:16.673Z,17.10
2018-06-13T02:01:19.629Z,17.10
2018-06-13T02:04:24.018Z,17.10
2018-06-13T02:07:26.955Z,17.10
2018-06-13T02:10:34.385Z,17.10
2018-06-13T02:13:47.517Z,17.10
2018-06-13T02:16:52.837Z,17.10
2018-06-13T02:19:55.962Z,17.10
2018-06-13T02:22:59.274Z,17.10
2018-06-13T02:26:08.965Z,17.10
2018-06-13T02:29:13.436Z,17.00
2018-06-13T02:32:16.354Z,17.00
2018-06-13T02:35:19.350Z,17.00
2018-06-13T02:38:22.254Z,17.10
2018-06-13T02:41:25.190Z,17.10
2018-06-13T02:44:28.107Z,17.00
2018-06-13T02:47:31.034Z,17.00
2018-06-13T02:50:33.941Z,17.00
2018-06-13T02:53:36.839Z,17.00
2018-06-13T02:59:43.048Z,17.00
2018-06-13T03:06:10.444Z,17.00
2018-06-13T03:09:13.566Z,17.00
2018-06-13T03:15:19.465Z,16.90
2018-06-13T03:18:22.367Z,16.90
2018-06-13T03:21:25.288Z,16.90
2018-06-13T03:27:31.082Z,16.90
2018-06-13T03:30:34.029Z,16.90
2018-06-13T03:33:36.941Z,16.90
2018-06-13T03:36:39.857Z,16.80
2018-06-13T03:39:42.776Z,16.80
2018-06-13T03:42:45.686Z,16.80
2018-06-13T03:45:57.453Z,16.80
2018-06-13T03:49:00.468Z,16.80
2018-06-13T03:52:03.485Z,16.80
2018-06-13T03:55:06.444Z,17.00
2018-06-13T03:58:09.375Z,16.80
2018-06-13T04:04:15.121Z,16.70
2018-06-13T04:07:18.326Z,16.70
2018-06-13T04:10:21.204Z,16.80
2018-06-13T04:13:24.130Z,16.80
2018-06-13T04:16:27.054Z,16.70
2018-06-13T04:19:30.021Z,16.70
2018-06-13T04:22:32.894Z,16.80
2018-06-13T04:25:35.817Z,16.70
2018-06-13T04:28:38.699Z,16.70
2018-06-13T04:31:41.615Z,16.70
2018-06-13T04:34:44.528Z,16.70
2018-06-13T04:37:47.487Z,16.70
2018-06-13T04:40:50.410Z,16.80
2018-06-13T04:43:53.352Z,16.80
2018-06-13T04:49:59.107Z,16.80
2018-06-13T04:53:02.006Z,16.80
2018-06-13T04:56:05.185Z,16.70
2018-06-13T04:59:08.092Z,16.70
2018-06-13T05:02:11.009Z,16.70
2018-06-13T05:05:13.901Z,16.70
2018-06-13T05:08:16.824Z,16.70
2018-06-13T05:11:19.736Z,16.70
2018-06-13T05:14:22.652Z,16.70
2018-06-13T05:17:25.533Z,16.70
2018-06-13T05:20:28.454Z,16.70
2018-06-13T05:23:31.357Z,16.60
2018-06-13T05:26:34.283Z,16.70
2018-06-13T05:29:37.183Z,16.80
2018-06-13T05:32:40.113Z,16.80
2018-06-13T05:35:43.020Z,16.90
2018-06-13T05:38:45.949Z,16.90
2018-06-13T05:41:48.883Z,16.90
2018-06-13T05:44:51.812Z,16.90
2018-06-13T05:47:54.706Z,16.90
2018-06-13T05:50:57.653Z,16.90
2018-06-13T05:54:00.569Z,16.90
2018-06-13T05:57:10.247Z,16.90
2018-06-13T06:00:13.194Z,16.90
2018-06-13T06:03:16.108Z,16.80
2018-06-13T06:06:18.992Z,16.80
2018-06-13T06:09:21.898Z,16.80
2018-06-13T06:12:24.806Z,16.70
2018-06-13T06:15:27.745Z,16.80
2018-06-13T06:18:30.676Z,16.80
2018-06-13T06:21:33.573Z,16.90
2018-06-13T06:24:36.478Z,16.90
2018-06-13T06:27:39.424Z,16.90
2018-06-13T06:30:42.334Z,17.00
2018-06-13T06:33:45.269Z,17.00
2018-06-13T06:36:48.268Z,17.10
2018-06-13T06:39:51.202Z,17.10
2018-06-13T06:42:54.111Z,17.20
2018-06-13T06:48:59.940Z,17.10
2018-06-13T06:52:02.896Z,17.10
2018-06-13T06:55:05.913Z,17.10
2018-06-13T06:58:08.821Z,17.10
2018-06-13T07:01:11.707Z,17.20
2018-06-13T07:04:14.641Z,17.30
2018-06-13T07:07:17.553Z,17.30
2018-06-13T07:10:20.447Z,17.40
2018-06-13T07:13:23.409Z,17.30
2018-06-13T07:16:26.433Z,17.20
2018-06-13T07:19:29.401Z,17.00
2018-06-13T07:22:32.342Z,17.10
2018-06-13T07:25:35.242Z,17.00
2018-06-13T07:28:38.145Z,17.10
2018-06-13T07:31:41.064Z,17.20
2018-06-13T07:34:43.985Z,17.30
2018-06-13T07:37:47.792Z,17.30
2018-06-13T07:40:50.788Z,17.40
2018-06-13T07:43:53.678Z,17.20
2018-06-13T07:46:56.597Z,17.30
2018-06-13T07:49:59.581Z,17.20
2018-06-13T07:53:02.657Z,17.30
2018-06-13T07:56:05.661Z,17.40
2018-06-13T07:59:08.566Z,17.40
2018-06-13T08:02:11.505Z,17.40
2018-06-13T08:05:14.425Z,17.30
2018-06-13T08:08:17.388Z,17.40
2018-06-13T08:11:20.306Z,17.30
2018-06-13T08:14:23.207Z,17.40
2018-06-13T08:23:31.948Z,17.60
2018-06-13T08:26:34.832Z,17.60
2018-06-13T08:29:37.739Z,17.60
2018-06-13T08:32:40.651Z,17.60
2018-06-13T08:35:43.573Z,17.60
2018-06-13T08:38:46.476Z,17.50
2018-06-13T08:41:49.452Z,17.50
2018-06-13T08:44:52.356Z,17.40
2018-06-13T08:47:55.277Z,17.40
2018-06-13T08:50:58.528Z,17.50
2018-06-13T08:54:01.443Z,17.40
2018-06-13T08:57:04.491Z,17.30
2018-06-13T09:00:07.487Z,17.30
2018-06-13T09:03:10.455Z,17.30
2018-06-13T09:06:13.388Z,17.30
2018-06-13T09:09:16.309Z,17.40
2018-06-13T09:12:19.481Z,17.40
2018-06-13T09:15:22.388Z,17.40
2018-06-13T09:18:25.327Z,17.20
2018-06-13T09:21:34.925Z,17.20
2018-06-13T09:24:37.863Z,17.30
2018-06-13T09:27:40.769Z,17.30
2018-06-13T09:30:43.675Z,17.30
2018-06-13T09:33:46.571Z,17.40
2018-06-13T09:36:50.340Z,17.30
2018-06-13T09:39:53.242Z,17.80
2018-06-13T09:42:56.185Z,17.70
2018-06-13T09:46:03.400Z,17.50
2018-06-13T09:49:02.146Z,17.30
2018-06-13T09:52:05.093Z,17.40
2018-06-13T09:55:08.045Z,17.30
2018-06-13T09:58:10.965Z,17.30
2018-06-13T10:01:19.565Z,17.30
2018-06-13T10:04:22.529Z,17.30
2018-06-13T10:07:25.450Z,17.30
2018-06-13T10:10:28.424Z,17.40
2018-06-13T10:13:31.336Z,17.30
2018-06-13T10:16:34.246Z,17.30
2018-06-13T10:19:37.180Z,17.40
2018-06-13T10:22:40.104Z,17.60
2018-06-13T10:25:43.060Z,17.50
2018-06-13T10:28:46.023Z,17.60
2018-06-13T10:31:48.913Z,17.80
2018-06-13T10:34:51.821Z,18.00
2018-06-13T10:37:54.767Z,18.10
2018-06-13T10:40:57.700Z,18.10
2018-06-13T10:44:00.608Z,18.20
2018-06-13T10:47:03.585Z,18.30
2018-06-13T10:50:06.487Z,18.20
2018-06-13T10:53:09.410Z,18.20
2018-06-13T10:56:12.359Z,18.20
2018-06-13T10:59:15.292Z,18.30
2018-06-13T11:02:18.236Z,18.20
2018-06-13T11:05:21.145Z,18.00
2018-06-13T11:08:24.061Z,18.10
2018-06-13T11:11:27.303Z,17.90
2018-06-13T11:14:30.255Z,17.90
2018-06-13T11:17:33.258Z,17.80
2018-06-13T11:20:36.315Z,17.70
2018-06-13T11:23:39.270Z,17.70
2018-06-13T11:26:42.283Z,17.60
2018-06-13T11:29:45.185Z,17.50
2018-06-13T11:32:48.111Z,17.60
2018-06-13T11:35:51.033Z,17.60
2018-06-13T11:38:53.957Z,17.50
2018-06-13T11:41:56.839Z,17.60
2018-06-13T11:44:59.734Z,17.70
2018-06-13T11:48:02.673Z,17.70
2018-06-13T11:51:05.653Z,17.70
2018-06-13T11:54:08.584Z,17.80
2018-06-13T11:57:11.544Z,17.80
2018-06-13T12:00:14.477Z,17.90
2018-06-13T12:03:17.425Z,18.00
2018-06-13T12:06:20.470Z,18.00
2018-06-13T12:09:23.430Z,18.10
2018-06-13T12:12:26.354Z,18.20
2018-06-13T12:15:29.260Z,18.20
2018-06-13T12:18:32.306Z,18.40
2018-06-13T12:21:35.202Z,18.70
2018-06-13T12:24:38.079Z,18.80
2018-06-13T12:27:40.997Z,18.70
2018-06-13T12:30:43.932Z,18.50
2018-06-13T12:33:46.839Z,18.50
2018-06-13T12:36:50.559Z,18.50
2018-06-13T12:39:53.481Z,18.40
2018-06-13T12:42:56.396Z,18.30
2018-06-13T12:45:59.313Z,18.30
2018-06-13T12:49:02.209Z,18.40
2018-06-13T12:52:05.401Z,18.40
2018-06-13T12:55:10.085Z,18.30
2018-06-13T12:58:13.041Z,18.30
2018-06-13T13:01:15.964Z,18.20
2018-06-13T13:04:18.942Z,18.20
2018-06-13T13:07:21.861Z,18.20
2018-06-13T13:10:25.041Z,18.20
2018-06-13T13:13:27.948Z,18.40
2018-06-13T13:16:30.949Z,18.50
2018-06-13T13:19:33.896Z,18.90
2018-06-13T13:22:38.025Z,19.20
2018-06-13T13:25:43.659Z,19.10
2018-06-13T13:28:46.579Z,19.10
2018-06-13T13:31:49.458Z,19.10
2018-06-13T13:34:54.640Z,19.00
2018-06-13T13:38:01.025Z,19.40
2018-06-13T13:41:09.753Z,19.50
2018-06-13T13:44:12.881Z,19.40
2018-06-13T13:47:15.847Z,19.30
2018-06-13T13:50:18.765Z,19.10
2018-06-13T13:53:21.676Z,19.00
2018-06-13T13:56:24.660Z,19.10
2018-06-13T13:59:27.553Z,19.20
2018-06-13T14:02:30.604Z,19.10
2018-06-13T14:05:36.271Z,19.10
2018-06-13T14:08:41.451Z,19.00
2018-06-13T14:11:47.243Z,18.80
2018-06-13T14:14:50.270Z,18.70
2018-06-13T14:17:53.247Z,18.70
2018-06-13T14:20:56.241Z,19.10
2018-06-13T14:23:59.205Z,19.10
2018-06-13T14:30:05.145Z,19.10
2018-06-13T14:33:08.103Z,19.00
2018-06-13T14:36:11.076Z,18.90
2018-06-13T14:39:14.025Z,18.80
2018-06-13T14:42:16.984Z,18.80
2018-06-13T14:45:19.925Z,18.80
2018-06-13T14:51:25.856Z,18.90
2018-06-13T14:54:28.750Z,19.00
2018-06-13T14:57:31.657Z,19.10
2018-06-13T15:00:34.565Z,19.10
2018-06-13T15:03:38.422Z,19.30
2018-06-13T15:06:41.352Z,19.70
2018-06-13T15:12:47.234Z,19.40
2018-06-13T15:15:50.244Z,19.20
2018-06-13T15:18:53.304Z,19.10
2018-06-13T15:21:56.227Z,18.90
2018-06-13T15:24:59.185Z,18.90
2018-06-13T15:28:02.108Z,19.00
2018-06-13T15:31:05.085Z,19.00
2018-06-13T15:34:08.029Z,19.00
2018-06-13T15:37:10.926Z,19.00
2018-06-13T15:40:13.818Z,18.90
2018-06-13T15:43:17.096Z,18.80
2018-06-13T15:46:20.005Z,18.70
2018-06-13T15:49:22.917Z,18.70
2018-06-13T15:52:25.928Z,18.70
2018-06-13T15:55:28.871Z,18.80
2018-06-13T15:58:31.766Z,18.80
2018-06-13T16:01:34.713Z,18.80
2018-06-13T16:07:40.648Z,18.80
2018-06-13T16:10:43.574Z,18.80
2018-06-13T16:13:46.497Z,18.70
2018-06-13T16:16:49.390Z,18.70
2018-06-13T16:19:52.357Z,18.60
2018-06-13T16:22:55.296Z,18.60
2018-06-13T16:25:58.280Z,18.60
2018-06-13T16:29:01.230Z,18.50
2018-06-13T16:32:04.180Z,18.50
2018-06-13T16:35:07.118Z,18.50
2018-06-13T16:38:10.044Z,18.50
2018-06-13T16:41:13.831Z,18.50
2018-06-13T16:44:17.195Z,18.60
2018-06-13T16:47:22.238Z,18.90
2018-06-13T16:50:42.597Z,18.70
2018-06-13T16:54:02.771Z,18.50
2018-06-13T16:57:06.772Z,18.60
2018-06-13T17:00:10.148Z,18.50
2018-06-13T17:03:13.508Z,18.60
2018-06-13T17:06:17.948Z,18.50
2018-06-13T17:12:24.313Z,18.40
2018-06-13T17:15:28.600Z,18.40
2018-06-13T17:18:31.840Z,18.30
2018-06-13T17:21:35.310Z,18.40
2018-06-13T17:24:39.045Z,18.30
2018-06-13T17:27:42.533Z,18.40
2018-06-13T17:30:45.435Z,18.40
2018-06-13T17:33:48.358Z,18.50
2018-06-13T17:36:51.262Z,18.40
2018-06-13T17:39:54.189Z,18.30
2018-06-13T17:42:57.098Z,18.30
2018-06-13T17:46:00.017Z,18.20
2018-06-13T17:49:02.921Z,18.20
2018-06-13T17:52:05.949Z,18.10
2018-06-13T17:55:08.834Z,18.10
2018-06-13T17:58:11.765Z,18.20
2018-06-13T18:01:14.688Z,18.20
2018-06-13T18:04:17.738Z,18.20
2018-06-13T18:07:20.668Z,18.20
2018-06-13T18:10:23.613Z,18.20
2018-06-13T18:13:26.517Z,18.10
2018-06-13T18:16:29.473Z,18.20
2018-06-13T18:19:32.381Z,18.10
2018-06-13T18:22:35.551Z,18.10
2018-06-13T18:25:38.457Z,18.20
2018-06-13T18:28:41.433Z,18.10
2018-06-13T18:31:44.345Z,18.20
2018-06-13T18:34:47.234Z,18.20
2018-06-13T18:40:53.119Z,18.20
2018-06-13T18:43:56.036Z,18.10
2018-06-13T18:46:58.938Z,18.10
2018-06-13T18:50:01.891Z,18.00
2018-06-13T18:53:04.864Z,18.00
2018-06-13T18:56:07.761Z,18.00
2018-06-13T18:59:10.675Z,18.10
2018-06-13T19:02:13.613Z,18.10
2018-06-13T19:05:16.626Z,18.00
2018-06-13T19:08:19.557Z,18.00
2018-06-13T19:11:22.465Z,18.00
2018-06-13T19:14:25.415Z,18.00
2018-06-13T19:17:28.351Z,18.00
2018-06-13T19:20:31.254Z,17.90
2018-06-13T19:23:34.228Z,17.70
2018-06-13T19:26:37.168Z,17.80
2018-06-13T19:29:40.082Z,17.60
2018-06-13T19:32:42.985Z,17.70
2018-06-13T19:35:45.921Z,17.50
2018-06-13T19:38:48.844Z,17.40
2018-06-13T19:41:51.778Z,17.20
2018-06-13T19:44:54.811Z,17.20
2018-06-13T19:48:03.330Z,17.10
2018-06-13T19:51:06.282Z,17.00
2018-06-13T19:54:14.882Z,16.90
2018-06-13T19:57:17.787Z,16.90
2018-06-13T20:00:21.009Z,16.90
2018-06-13T20:03:29.458Z,16.70
2018-06-13T20:06:34.762Z,16.70
2018-06-13T20:09:37.651Z,16.60
2018-06-13T20:12:46.466Z,16.60
2018-06-13T20:15:54.939Z,16.50
2018-06-13T20:19:03.456Z,16.60
2018-06-13T20:22:06.399Z,16.60
2018-06-13T20:25:14.941Z,16.50
2018-06-13T20:28:23.744Z,16.50
2018-06-13T20:31:28.702Z,16.30
2018-06-13T20:34:31.556Z,16.30
2018-06-13T20:37:34.479Z,16.30
2018-06-13T20:40:37.427Z,16.30
2018-06-13T20:43:40.661Z,16.20
2018-06-13T20:46:43.561Z,16.30
2018-06-13T20:49:46.472Z,16.20
2018-06-13T20:52:49.354Z,16.10
2018-06-13T20:55:52.268Z,16.00
2018-06-13T20:58:55.184Z,16.10
2018-06-13T21:01:58.112Z,16.10
2018-06-13T21:05:01.015Z,16.10
2018-06-13T21:08:04.000Z,15.90
2018-06-13T21:11:06.891Z,15.80
2018-06-13T21:14:09.826Z,15.70
2018-06-13T21:17:12.717Z,15.80
2018-06-13T21:20:15.662Z,15.80
2018-06-13T21:23:18.639Z,15.80
2018-06-13T21:26:21.573Z,15.90
2018-06-13T21:29:24.477Z,15.90
2018-06-13T21:32:27.397Z,15.90
2018-06-13T21:35:30.956Z,15.80
2018-06-13T21:38:37.279Z,15.80
2018-06-13T21:41:41.067Z,15.80
2018-06-13T21:44:44.481Z,15.70
2018-06-13T21:47:47.426Z,15.60
2018-06-13T21:50:50.641Z,15.60
2018-06-13T21:53:54.637Z,15.60
2018-06-13T21:56:58.201Z,15.60
2018-06-13T22:00:01.465Z,15.60
2018-06-13T22:03:04.817Z,15.50
2018-06-13T22:06:07.923Z,15.60
2018-06-13T22:09:11.758Z,15.50
2018-06-13T22:12:16.190Z,15.50
2018-06-13T22:15:23.681Z,15.50
2018-06-13T22:18:27.011Z,15.50
2018-06-13T22:21:29.950Z,15.50
2018-06-13T22:24:33.528Z,15.50
2018-06-13T22:27:37.073Z,15.50
2018-06-13T22:30:41.067Z,15.30
2018-06-13T22:33:44.210Z,15.20
2018-06-13T22:36:48.683Z,15.20
2018-06-13T22:39:52.084Z,15.20
2018-06-13T22:42:55.197Z,15.20
2018-06-13T22:45:58.402Z,15.20
2018-06-13T22:49:01.743Z,15.20
2018-06-13T22:52:04.687Z,15.20
2018-06-13T22:55:08.345Z,15.20
2018-06-13T22:58:11.848Z,15.20
2018-06-13T23:01:14.771Z,15.20
2018-06-13T23:04:18.713Z,15.20
2018-06-13T23:07:22.398Z,15.10
2018-06-13T23:10:25.603Z,15.10
2018-06-13T23:13:28.632Z,15.10
2018-06-13T23:16:32.020Z,15.10
2018-06-13T23:19:35.713Z,15.00
2018-06-13T23:22:38.775Z,15.00
2018-06-13T23:25:43.179Z,14.90
2018-06-13T23:28:47.113Z,14.80
2018-06-13T23:31:51.568Z,14.80
2018-06-13T23:35:01.689Z,14.80
2018-06-13T23:38:06.122Z,14.80
2018-06-13T23:41:09.986Z,14.80
2018-06-13T23:44:13.198Z,14.80
2018-06-13T23:47:16.302Z,14.80
2018-06-13T23:50:19.659Z,14.90
2018-06-13T23:53:23.021Z,14.90
2018-06-13T23:56:27.307Z,14.90
2018-06-13T23:59:30.289Z,14.80
